Time;durP1;ratioP1;P1;durP2;ratioP2;P2;SDS_P1;SDS_P2;PMS_P1;PMS_P2;Temp;Humidity;BMP_temperature;BMP_pressure;BME280_temperature;BME280_humidity;BME280_pressure;Samples;Min_cycle;Max_cycle;Signal;HPM_P1;HPM_P2
2022/08/09 00:01:03;;;;;;;6.50;1.90;;;;;;;23.51;52.26;100036.53;5089218;28;20115;-70
2022/08/09 00:03:28;;;;;;;2.90;1.40;;;;;;;23.50;52.53;100028.63;5107210;28;20028;-71
2022/08/09 00:05:54;;;;;;;3.20;1.50;;;;;;;23.46;52.65;100028.19;5102614;28;20035;-72
2022/08/09 00:08:20;;;;;;;2.92;1.40;;;;;;;23.41;52.81;100026.06;5087990;28;20028;-72
2022/08/09 00:10:45;;;;;;;5.40;1.50;;;;;;;23.36;53.10;100024.97;5088504;28;20025;-70
2022/08/09 00:13:11;;;;;;;4.47;1.50;;;;;;;23.33;52.99;100006.44;5094477;28;20031;-66
2022/08/09 00:15:37;;;;;;;2.90;1.73;;;;;;;23.29;53.42;99984.41;5087702;28;20236;-70
2022/08/09 00:18:03;;;;;;;2.75;1.63;;;;;;;23.27;53.49;99967.56;5091339;28;20024;-68
2022/08/09 00:20:28;;;;;;;4.43;1.85;;;;;;;23.30;53.50;99973.41;5088129;28;20034;-70
2022/08/09 00:22:54;;;;;;;3.95;1.67;;;;;;;23.31;52.98;99963.44;5100911;28;20028;-71
2022/08/09 00:25:19;;;;;;;3.42;1.65;;;;;;;23.26;53.06;99953.22;5089857;28;20044;-71
2022/08/09 00:27:47;;;;;;;5.43;1.50;;;;;;;23.24;53.17;99955.28;5087731;28;20076;-68
2022/08/09 00:30:13;;;;;;;5.78;1.55;;;;;;;23.25;53.01;99956.13;5087916;28;20186;-69
2022/08/09 00:32:38;;;;;;;7.78;2.13;;;;;;;23.27;53.25;99951.38;5092607;28;20035;-70
2022/08/09 00:35:05;;;;;;;3.88;1.70;;;;;;;23.27;53.67;99956.78;5091672;28;20043;-69
2022/08/09 00:37:31;;;;;;;3.47;1.10;;;;;;;23.28;53.18;99955.75;5089713;28;20028;-68
2022/08/09 00:39:56;;;;;;;1.60;1.27;;;;;;;23.31;53.43;99949.94;5087506;28;20190;-69
2022/08/09 00:42:22;;;;;;;2.30;1.60;;;;;;;23.34;53.41;99943.31;5087994;28;20012;-67
2022/08/09 00:44:47;;;;;;;4.55;1.42;;;;;;;23.29;53.13;99944.75;5089315;28;20237;-70
2022/08/09 00:47:13;;;;;;;9.65;1.65;;;;;;;23.31;53.30;99936.44;5087644;28;20034;-70
2022/08/09 00:49:39;;;;;;;4.85;1.48;;;;;;;23.31;53.30;99934.59;5087555;28;20086;-69
2022/08/09 00:52:05;;;;;;;3.65;2.03;;;;;;;23.31;53.42;99939.13;5087378;28;20297;-69
2022/08/09 00:54:31;;;;;;;1.75;1.20;;;;;;;23.31;53.17;99936.44;5102399;28;20020;-69
2022/08/09 00:56:56;;;;;;;2.40;1.38;;;;;;;23.30;53.29;99938.31;5107849;28;20027;-69
2022/08/09 00:59:22;;;;;;;2.13;1.38;;;;;;;23.26;53.01;99937.03;5107807;28;20016;-69
2022/08/09 01:01:49;;;;;;;2.25;1.40;;;;;;;23.27;53.36;99951.38;5107781;28;20035;-69
2022/08/09 01:04:32;;;;;;;3.55;1.60;;;;;;;23.27;53.49;99954.91;5097087;28;20233;-70
2022/08/09 01:07:17;;;;;;;5.53;1.60;;;;;;;23.28;53.16;99961.97;5087466;28;20016;-71
2022/08/09 01:09:54;;;;;;;1.80;1.25;;;;;;;23.28;53.38;99961.16;5087404;28;20179;-70
2022/08/09 01:12:22;;;;;;;1.80;1.27;;;;;;;23.31;53.10;99953.47;5087267;28;20020;-71
2022/08/09 01:15:02;;;;;;;3.25;1.27;;;;;;;23.29;53.04;99955.53;5091273;28;20091;-70
2022/08/09 01:18:06;;;;;;;1.80;1.02;;;;;;;23.25;53.33;99967.75;5093844;28;20039;-71
2022/08/09 01:20:50;;;;;;;2.60;1.25;;;;;;;23.24;53.31;99959.84;5101194;28;20079;-70
2022/08/09 01:23:34;;;;;;;4.93;2.25;;;;;;;23.26;53.00;99965.91;5088488;28;20168;-71
2022/08/09 01:26:37;;;;;;;2.53;1.35;;;;;;;23.24;53.26;99960.66;5087400;28;20024;-69
2022/08/09 01:29:03;;;;;;;1.92;1.30;;;;;;;23.21;53.49;99971.88;5088561;28;20020;-71
2022/08/09 01:31:33;;;;;;;4.68;1.45;;;;;;;23.19;53.04;99967.66;5103584;28;20136;-72
2022/08/09 01:34:03;;;;;;;3.08;1.20;;;;;;;23.17;53.38;99971.38;5106841;28;20023;-70
2022/08/09 01:36:30;;;;;;;3.22;1.55;;;;;;;23.16;53.20;99968.88;5087120;28;20122;-70
2022/08/09 01:38:58;;;;;;;1.73;1.20;;;;;;;23.14;53.50;99974.50;5087021;28;20138;-71
2022/08/09 01:41:30;;;;;;;1.92;1.27;;;;;;;23.12;53.27;99978.38;5100066;28;20089;-70
2022/08/09 01:44:00;;;;;;;2.03;1.33;;;;;;;23.09;53.54;99974.22;5091722;28;20017;-69
2022/08/09 01:46:32;;;;;;;2.17;1.15;;;;;;;23.11;53.36;99982.97;5086994;28;20016;-71
2022/08/09 01:49:00;;;;;;;2.08;1.67;;;;;;;23.12;53.32;99979.25;5097977;28;20232;-69
2022/08/09 01:51:28;;;;;;;2.47;1.40;;;;;;;23.14;53.17;99969.09;5086974;28;20046;-71
2022/08/09 01:53:57;;;;;;;1.85;1.20;;;;;;;23.11;52.94;99969.47;5087013;28;20046;-72
2022/08/09 01:56:25;;;;;;;2.78;1.30;;;;;;;23.12;53.20;99973.00;5090443;28;20016;-72
2022/08/09 01:58:54;;;;;;;5.50;1.58;;;;;;;23.11;53.23;99982.97;5090696;28;20012;-71
2022/08/09 02:01:21;;;;;;;2.13;1.42;;;;;;;23.10;53.20;99980.44;5090141;28;20016;-70
2022/08/09 02:03:48;;;;;;;2.38;1.63;;;;;;;23.06;53.37;99981.88;5090746;28;20035;-70
2022/08/09 02:06:16;;;;;;;2.60;1.25;;;;;;;23.05;53.20;99985.59;5090640;28;20032;-71
2022/08/09 02:08:44;;;;;;;2.42;1.33;;;;;;;23.09;53.41;99989.56;5089844;28;20355;-72
2022/08/09 02:11:13;;;;;;;1.60;1.30;;;;;;;23.14;53.17;99992.53;5090689;28;20029;-71
2022/08/09 02:13:40;;;;;;;2.72;1.42;;;;;;;23.17;52.89;99995.66;5104902;28;20020;-71
2022/08/09 02:16:10;;;;;;;2.20;1.20;;;;;;;23.17;52.99;99978.66;5090399;28;20036;-68
2022/08/09 02:18:39;;;;;;;1.88;1.40;;;;;;;23.14;53.31;99992.53;5090361;28;20017;-70
2022/08/09 02:21:12;;;;;;;1.80;1.20;;;;;;;23.13;53.24;99989.00;5105530;28;20044;-71
2022/08/09 02:23:45;;;;;;;1.85;1.40;;;;;;;23.12;53.00;99995.44;5110872;28;20027;-69
2022/08/09 02:26:14;;;;;;;2.13;1.15;;;;;;;23.13;53.33;99989.00;5108391;28;20020;-70
2022/08/09 02:28:45;;;;;;;1.58;1.17;;;;;;;23.13;53.26;99990.84;5094683;28;20024;-69
2022/08/09 02:31:18;;;;;;;2.80;1.38;;;;;;;23.11;53.15;99991.06;5110531;28;20019;-71
2022/08/09 02:33:46;;;;;;;3.13;1.40;;;;;;;23.10;52.97;99994.78;5110440;28;20043;-71
2022/08/09 02:36:23;;;;;;;2.20;1.30;;;;;;;23.14;53.04;100001.47;5110491;28;20031;-70
2022/08/09 02:38:54;;;;;;;1.92;1.27;;;;;;;23.12;52.76;99998.13;5110251;28;20235;-69
2022/08/09 02:41:46;;;;;;;3.45;1.30;;;;;;;23.08;53.23;100009.50;5110329;28;20012;-69
2022/08/09 02:44:19;;;;;;;3.28;1.20;;;;;;;23.09;53.02;100012.00;5110254;28;20030;-70
2022/08/09 02:46:48;;;;;;;2.15;1.30;;;;;;;23.12;52.95;100022.44;5110488;28;20136;-71
2022/08/09 02:49:17;;;;;;;2.33;1.00;;;;;;;23.12;52.77;100021.56;5092599;28;20260;-70
2022/08/09 02:51:46;;;;;;;2.38;1.58;;;;;;;23.13;53.02;100028.66;5098660;28;20047;-69
2022/08/09 02:54:14;;;;;;;2.50;1.42;;;;;;;23.14;53.11;100017.69;5089416;28;20012;-70
2022/08/09 02:56:44;;;;;;;3.55;1.30;;;;;;;23.12;52.93;100019.72;5089435;28;20184;-70
2022/08/09 02:59:11;;;;;;;2.30;1.35;;;;;;;23.08;53.08;100023.81;5089392;28;20020;-70
2022/08/09 03:01:38;;;;;;;3.88;1.40;;;;;;;23.11;52.83;100038.78;5093437;28;20028;-70
2022/08/09 03:04:06;;;;;;;1.58;1.08;;;;;;;23.11;52.81;100036.94;5102206;28;20145;-70
2022/08/09 03:06:33;;;;;;;2.90;1.05;;;;;;;23.08;52.98;100028.41;5089364;28;20062;-71
2022/08/09 03:09:00;;;;;;;1.55;1.10;;;;;;;23.04;53.00;100022.53;5089180;28;20032;-70
2022/08/09 03:11:27;;;;;;;2.35;1.45;;;;;;;23.07;53.07;100032.13;5089379;28;20027;-69
2022/08/09 03:13:54;;;;;;;2.15;1.20;;;;;;;23.11;52.70;100028.84;5089109;28;20051;-71
2022/08/09 03:16:22;;;;;;;4.40;1.52;;;;;;;23.15;52.71;100027.44;5089097;28;20016;-71
2022/08/09 03:18:48;;;;;;;1.77;1.27;;;;;;;23.19;52.84;100021.63;5090358;28;20031;-68
2022/08/09 03:21:16;;;;;;;2.17;1.30;;;;;;;23.17;52.59;100014.56;5089181;28;20033;-72
2022/08/09 03:23:45;;;;;;;2.85;1.30;;;;;;;23.19;52.34;100019.78;5088987;28;20142;-71
2022/08/09 03:26:13;;;;;;;1.95;1.20;;;;;;;23.21;52.57;100016.91;5090385;28;20101;-71
2022/08/09 03:28:39;;;;;;;2.33;1.30;;;;;;;23.22;52.29;100027.53;5091515;28;20237;-71
2022/08/09 03:31:06;;;;;;;1.45;0.98;;;;;;;23.22;52.37;100018.59;5088980;28;20016;-70
2022/08/09 03:33:32;;;;;;;1.92;1.13;;;;;;;23.22;52.26;100015.91;5091512;28;20031;-69
2022/08/09 03:35:57;;;;;;;3.17;1.30;;;;;;;23.21;52.30;100014.22;5108480;28;20015;-69
2022/08/09 03:38:23;;;;;;;2.80;1.10;;;;;;;23.23;52.32;100013.03;5109088;28;20248;-72
2022/08/09 10:08:22;;;;;;;4.78;1.52;;;;;;;22.04;51.47;99998.66;5205760;27;20231;-72
2022/08/09 10:10:47;;;;;;;3.72;1.73;;;;;;;22.16;51.61;100001.69;5187683;27;20022;-71
2022/08/09 10:13:12;;;;;;;4.53;1.60;;;;;;;22.27;51.40;99994.19;5185623;27;20033;-73
2022/08/09 10:15:49;;;;;;;2.25;1.40;;;;;;;22.31;51.07;99992.78;5166780;27;20023;-73
2022/08/09 10:18:15;;;;;;;3.63;2.10;;;;;;;22.36;51.13;99993.06;5166618;27;20030;-73
2022/08/09 10:20:40;;;;;;;1.75;1.30;;;;;;;22.36;51.06;99996.56;5166545;27;20026;-73
2022/08/09 10:23:24;;;;;;;2.42;1.45;;;;;;;22.43;50.99;99991.31;5166442;27;20022;-72
2022/08/09 10:25:50;;;;;;;3.67;1.53;;;;;;;22.46;50.63;99993.63;5166810;27;20023;-72
2022/08/09 10:28:16;;;;;;;3.13;1.50;;;;;;;22.48;50.56;99985.38;5166470;27;20035;-71
2022/08/09 10:30:42;;;;;;;2.50;1.35;;;;;;;22.50;50.55;99992.25;5166552;27;20054;-72
2022/08/09 10:33:08;;;;;;;5.72;1.88;;;;;;;22.53;50.51;99983.78;5166370;27;20038;-73
2022/08/09 10:35:34;;;;;;;3.33;1.45;;;;;;;22.55;50.58;99986.28;5166473;27;20057;-72
2022/08/09 10:38:03;;;;;;;2.55;1.42;;;;;;;22.58;50.34;99999.38;5166307;27;20113;-73
2022/08/09 10:40:28;;;;;;;1.80;1.27;;;;;;;22.62;50.40;99999.84;5166313;27;20026;-73
2022/08/09 10:42:54;;;;;;;4.60;1.63;;;;;;;22.57;50.62;99999.59;5166052;27;20026;-73
2022/08/09 10:45:21;;;;;;;2.75;1.73;;;;;;;22.57;50.50;100004.97;5166137;27;20019;-72
2022/08/09 10:48:14;;;;;;;2.58;1.55;;;;;;;22.55;50.59;100015.94;5171524;27;20136;-73
2022/08/09 10:53:56;;;;;;;2.17;1.50;;;;;;;22.43;50.58;100010.19;5159640;27;20030;-72
2022/08/09 10:56:22;;;;;;;4.85;1.45;;;;;;;22.47;50.60;100006.09;5181940;27;20022;-72
2022/08/09 10:58:51;;;;;;;3.90;1.35;;;;;;;22.51;50.48;100007.41;5186658;27;20053;-72
2022/08/09 11:01:31;;;;;;;2.38;1.63;;;;;;;22.49;50.08;100005.91;5186742;27;20027;-73
2022/08/09 11:04:23;;;;;;;2.53;1.23;;;;;;;22.46;50.52;100007.09;5175978;27;20019;-72
2022/08/09 11:06:57;;;;;;;6.35;1.40;;;;;;;22.49;50.66;100012.13;5181290;27;20035;-72
2022/08/09 11:09:41;;;;;;;1.67;1.05;;;;;;;22.47;50.81;100016.06;5171483;27;20030;-71
2022/08/09 11:12:09;;;;;;;3.45;1.70;;;;;;;22.34;50.95;100009.44;5177285;27;20034;-72
2022/08/09 11:14:47;;;;;;;3.35;1.60;;;;;;;22.27;50.84;100005.78;5165625;27;20050;-72
2022/08/09 11:17:12;;;;;;;4.95;1.52;;;;;;;22.27;50.90;100007.66;5165584;27;20011;-72
2022/08/09 11:20:04;;;;;;;2.53;1.67;;;;;;;22.32;50.80;100006.09;5155664;27;20033;-72
2022/08/09 11:22:44;;;;;;;;;;;;;;;22.30;51.16;100008.13;5157186;27;20031;-73
2022/08/09 11:25:12;;;;;;;2.50;1.48;;;;;;;22.40;50.93;100005.16;5172408;27;19894;-72
2022/08/09 11:27:46;;;;;;;3.00;1.42;;;;;;;22.45;50.53;100002.75;5165886;27;20071;-72
2022/08/09 11:30:32;;;;;;;2.92;1.58;;;;;;;22.51;50.38;100001.16;5155389;27;20023;-72
2022/08/09 11:33:16;;;;;;;6.32;1.67;;;;;;;22.51;50.52;100006.53;5158493;27;20111;-71
2022/08/09 11:35:43;;;;;;;6.70;2.33;;;;;;;22.43;50.25;100002.09;5151341;27;20019;-72
2022/08/09 11:38:20;;;;;;;3.50;1.80;;;;;;;22.43;50.25;100010.19;5154888;27;20011;-72
2022/08/09 11:40:47;;;;;;;4.10;1.55;;;;;;;22.45;50.00;100001.91;5151363;27;20168;-72
2022/08/09 11:43:36;;;;;;;2.72;1.55;;;;;;;22.49;49.85;100006.75;5151510;27;20232;-72
2022/08/09 11:46:04;;;;;;;2.17;1.20;;;;;;;22.56;49.66;100001.44;5155195;27;20139;-71
2022/08/09 11:48:48;;;;;;;3.28;1.60;;;;;;;22.62;49.41;100005.22;5162851;27;20022;-74
2022/08/09 11:51:14;;;;;;;4.85;1.52;;;;;;;22.65;49.43;100005.69;5172170;27;20501;-73
2022/08/09 11:53:41;;;;;;;1.90;1.10;;;;;;;22.52;48.84;100009.06;5165049;27;20038;-73
2022/08/09 11:56:12;;;;;;;1.75;1.00;;;;;;;22.50;49.09;99996.81;5155093;27;20025;-74
2022/08/09 11:58:43;;;;;;;2.50;1.40;;;;;;;22.54;48.64;100003.47;5154152;27;20107;-73
2022/08/09 12:01:09;;;;;;;;;;;;;;;22.51;48.69;99998.47;5151350;27;20271;-73
2022/08/09 12:03:36;;;;;;;2.00;1.30;;;;;;;22.60;48.71;99996.50;5151002;27;19895;-73
2022/08/09 12:06:10;;;;;;;2.45;1.00;;;;;;;22.63;48.23;99991.59;5155457;27;20045;-72
2022/08/09 12:08:36;;;;;;;5.15;1.08;;;;;;;22.55;48.29;99997.91;5150655;27;20025;-72
2022/08/09 12:11:03;;;;;;;1.88;1.38;;;;;;;22.58;48.03;99998.53;5154773;27;20071;-73
2022/08/09 12:13:34;;;;;;;4.20;1.58;;;;;;;22.54;48.28;99995.38;5154869;27;20029;-72
2022/08/09 12:16:00;;;;;;;2.30;1.30;;;;;;;22.59;48.38;99989.44;5154562;27;20026;-73
2022/08/09 12:18:26;;;;;;;2.22;1.55;;;;;;;22.63;48.38;99999.66;5156843;27;20030;-73
2022/08/09 12:20:52;;;;;;;3.63;1.25;;;;;;;22.63;48.29;99996.13;5154213;27;20023;-73
2022/08/09 12:23:17;;;;;;;3.20;1.27;;;;;;;22.57;48.38;99997.72;5154433;27;20034;-73
2022/08/09 12:25:47;;;;;;;3.15;1.08;;;;;;;22.61;48.34;99998.16;5154759;27;20022;-73
2022/08/09 12:28:16;;;;;;;3.03;1.20;;;;;;;22.59;48.03;99995.66;5169218;27;20030;-72
2022/08/09 12:30:42;;;;;;;4.72;1.40;;;;;;;22.53;48.05;99996.41;5150580;27;20225;-71
2022/08/09 12:33:08;;;;;;;4.18;1.02;;;;;;;22.52;47.94;99992.88;5154238;27;20047;-73
2022/08/09 12:35:35;;;;;;;8.18;1.30;;;;;;;22.48;47.97;99996.97;5154503;27;20030;-72
2022/08/09 12:38:21;;;;;;;2.90;1.40;;;;;;;22.49;48.06;99992.44;5150023;27;20238;-73
2022/08/09 12:40:49;;;;;;;2.58;1.20;;;;;;;22.54;48.09;99992.69;5150368;27;20068;-73
2022/08/09 12:43:17;;;;;;;3.33;1.17;;;;;;;22.61;47.81;99984.69;5149888;27;20078;-73
2022/08/09 12:45:45;;;;;;;1.85;1.38;;;;;;;22.57;47.72;99994.19;5149948;27;20019;-72
2022/08/09 12:48:11;;;;;;;1.67;1.00;;;;;;;22.55;47.65;99988.97;5158682;27;20090;-72
2022/08/09 12:50:37;;;;;;;5.97;0.85;;;;;;;22.57;47.56;99991.50;5170622;27;20164;-72
2022/08/09 12:53:03;;;;;;;5.15;1.27;;;;;;;22.55;47.27;99995.22;5170524;27;20049;-72
2022/08/09 12:55:31;;;;;;;2.33;1.23;;;;;;;22.55;47.44;99989.81;5170477;27;20019;-72
2022/08/09 12:57:59;;;;;;;3.67;1.20;;;;;;;22.61;47.42;99993.63;5165397;27;20232;-72
2022/08/09 13:00:33;;;;;;;2.30;1.40;;;;;;;22.54;47.33;99990.84;5169262;27;20022;-72
2022/08/09 13:03:05;;;;;;;3.40;1.40;;;;;;;22.51;47.60;99988.53;5170293;27;20112;-72
2022/08/09 13:05:47;;;;;;;5.00;1.25;;;;;;;22.53;47.61;99985.63;5170387;27;20236;-72
2022/08/09 13:08:18;;;;;;;2.40;1.63;;;;;;;22.61;47.23;99981.97;5158609;27;20050;-73
2022/08/09 13:10:46;;;;;;;7.07;1.33;;;;;;;22.64;47.00;99981.63;5153566;27;20304;-72
2022/08/09 13:13:12;;;;;;;1.85;0.95;;;;;;;22.62;46.78;99975.56;5149408;27;20019;-72
2022/08/09 13:16:15;;;;;;;1.67;0.90;;;;;;;22.63;46.61;99979.94;5157492;27;20236;-73
2022/08/09 13:18:45;;;;;;;7.70;1.08;;;;;;;22.62;46.88;99989.06;5085998;28;20021;-73
2022/08/09 13:21:25;;;;;;;2.53;1.25;;;;;;;22.66;46.68;99976.88;5156152;27;20090;-72
2022/08/09 13:24:10;;;;;;;1.60;1.25;;;;;;;22.72;46.86;99976.09;5149347;27;20071;-72
2022/08/09 13:26:41;;;;;;;4.88;1.45;;;;;;;22.62;46.96;99975.56;5149017;27;20232;-72
2022/08/09 13:29:13;;;;;;;4.22;1.55;;;;;;;22.51;47.35;99977.72;5149094;27;20019;-72
2022/08/09 13:32:19;;;;;;;2.72;1.40;;;;;;;22.47;47.17;99981.00;5149071;27;20060;-73
2022/08/09 13:34:45;;;;;;;3.05;1.63;;;;;;;22.44;47.30;99970.59;5153902;27;20022;-73
2022/08/09 13:37:11;;;;;;;1.98;1.30;;;;;;;22.45;47.25;99973.09;5148967;27;20071;-72
2022/08/09 13:39:38;;;;;;;1.52;1.05;;;;;;;22.40;47.36;99981.72;5148997;27;20086;-73
2022/08/09 13:42:08;;;;;;;3.55;1.30;;;;;;;22.37;47.79;99983.94;5148729;27;20220;-72
2022/08/09 13:44:34;;;;;;;2.47;1.60;;;;;;;22.29;48.18;99967.84;5152893;27;20023;-73
2022/08/09 13:47:01;;;;;;;5.03;1.10;;;;;;;22.32;48.28;99970.19;5148874;27;20046;-73
2022/08/09 13:49:26;;;;;;;7.07;1.48;;;;;;;22.43;47.98;99974.31;5163618;27;20021;-72
2022/08/09 13:51:52;;;;;;;5.10;1.10;;;;;;;22.51;47.98;99976.88;5149218;27;20082;-72
2022/08/09 13:54:18;;;;;;;5.88;1.10;;;;;;;22.46;47.82;99973.94;5148668;27;20030;-72
2022/08/09 13:56:43;;;;;;;2.75;1.40;;;;;;;22.41;47.64;99971.78;5148820;27;20239;-73
2022/08/09 13:59:09;;;;;;;4.13;1.40;;;;;;;22.36;47.60;99963.41;5152618;27;20026;-72
2022/08/09 14:01:34;;;;;;;4.55;1.10;;;;;;;22.37;47.48;99965.91;5163387;27;20058;-73
2022/08/09 14:04:00;;;;;;;1.73;1.10;;;;;;;22.47;47.70;99975.59;5169435;27;20026;-72
2022/08/09 14:06:25;;;;;;;1.92;0.98;;;;;;;22.55;47.47;99975.50;5169367;27;20038;-73
2022/08/09 14:08:51;;;;;;;3.28;1.13;;;;;;;22.60;47.66;99981.16;5167969;27;20034;-73
2022/08/09 14:11:17;;;;;;;2.20;1.35;;;;;;;22.65;47.53;99975.19;5161268;27;20274;-73
2022/08/09 14:13:43;;;;;;;4.25;1.40;;;;;;;22.74;47.61;99973.22;5169420;27;20050;-72
2022/08/09 14:16:12;;;;;;;1.83;1.48;;;;;;;22.74;47.78;99981.31;5169342;27;20177;-73
2022/08/09 14:18:40;;;;;;;2.65;1.33;;;;;;;22.75;47.84;99983.00;5162200;27;20021;-73
2022/08/09 14:21:07;;;;;;;5.38;1.55;;;;;;;22.77;48.05;99979.06;5148586;28;20140;-73
2022/08/09 14:23:32;;;;;;;3.72;1.40;;;;;;;22.76;48.01;99972.00;5150717;27;20174;-73
2022/08/09 14:25:58;;;;;;;2.45;1.20;;;;;;;22.77;47.95;99976.38;5166373;27;20026;-73
2022/08/09 14:28:23;;;;;;;5.35;1.60;;;;;;;22.80;48.28;99976.00;5148394;27;20027;-73
2022/08/09 14:30:49;;;;;;;4.60;1.40;;;;;;;22.87;48.08;99978.75;5148476;28;20132;-73
2022/08/09 14:33:14;;;;;;;1.80;1.30;;;;;;;22.93;48.24;99982.56;5149000;27;20019;-73
2022/08/09 14:35:40;;;;;;;3.40;1.50;;;;;;;22.91;48.19;99977.38;5148469;28;20030;-73
2022/08/09 14:38:05;;;;;;;6.78;1.33;;;;;;;22.90;48.00;99980.25;5148331;27;20248;-73
2022/08/09 14:40:31;;;;;;;2.53;1.55;;;;;;;22.90;47.88;99988.34;5148481;28;20029;-73
2022/08/09 14:42:56;;;;;;;1.80;1.10;;;;;;;22.95;47.90;99989.44;5148400;27;20264;-73
2022/08/09 14:45:22;;;;;;;2.83;1.38;;;;;;;23.00;47.79;99986.19;5155217;27;20025;-73
2022/08/09 14:47:48;;;;;;;1.38;0.90;;;;;;;23.04;47.71;99992.03;5168851;27;20030;-73
2022/08/09 14:50:14;;;;;;;2.47;1.17;;;;;;;22.93;47.74;99986.09;5169017;27;20083;-74
2022/08/09 14:52:40;;;;;;;3.75;1.27;;;;;;;22.88;47.83;99998.47;5158281;27;20015;-73
2022/08/09 14:55:05;;;;;;;2.45;1.40;;;;;;;22.81;48.07;99996.56;5167687;27;20037;-72
2022/08/09 14:57:31;;;;;;;3.45;1.38;;;;;;;22.85;48.17;99997.00;5161633;27;20232;-73
2022/08/09 14:59:57;;;;;;;1.65;1.27;;;;;;;22.85;47.85;100005.09;5158016;27;20031;-72
2022/08/09 15:02:22;;;;;;;2.08;1.52;;;;;;;22.84;47.91;100004.28;5152091;27;20030;-73
2022/08/09 15:04:48;;;;;;;4.05;1.40;;;;;;;22.88;47.93;99998.47;5151992;27;20022;-72
2022/08/09 15:07:14;;;;;;;2.10;1.35;;;;;;;22.91;47.71;99998.09;5151728;27;20052;-73
2022/08/09 15:09:39;;;;;;;2.50;1.20;;;;;;;22.90;47.55;99994.59;5159864;27;20069;-73
2022/08/09 15:12:05;;;;;;;2.63;1.48;;;;;;;22.87;47.24;99997.66;5151813;27;20031;-73
2022/08/09 15:14:31;;;;;;;1.58;0.85;;;;;;;22.88;47.31;99993.06;5151565;27;20094;-72
2022/08/09 15:16:56;;;;;;;3.38;1.00;;;;;;;22.91;47.26;99992.69;5151591;27;20225;-73
2022/08/09 15:19:22;;;;;;;5.57;1.30;;;;;;;22.93;46.79;99996.06;5163946;27;20029;-72
2022/08/09 15:21:47;;;;;;;6.28;1.55;;;;;;;22.93;47.03;99990.66;5172367;27;20041;-72
2022/08/09 15:24:13;;;;;;;4.88;1.15;;;;;;;22.93;47.04;99990.66;5172360;27;20098;-72
2022/08/09 15:26:38;;;;;;;5.00;1.40;;;;;;;22.95;46.68;99988.59;5162721;27;20033;-72
2022/08/09 15:29:04;;;;;;;2.95;1.02;;;;;;;22.89;46.59;99992.06;5151973;27;20240;-73
2022/08/09 15:31:30;;;;;;;20.23;2.08;;;;;;;22.85;46.49;99992.47;5152466;27;20136;-73
2022/08/09 15:33:56;;;;;;;1.73;1.05;;;;;;;22.84;46.72;99987.22;5157773;27;20018;-73
2022/08/09 15:36:21;;;;;;;1.88;1.05;;;;;;;22.84;46.70;99984.53;5160758;27;20202;-73
2022/08/09 15:38:47;;;;;;;3.38;1.25;;;;;;;22.85;46.68;99972.72;5151365;27;20148;-72
2022/08/09 15:41:12;;;;;;;1.80;1.27;;;;;;;22.89;46.78;99983.97;5166555;27;20030;-72
2022/08/09 15:43:38;;;;;;;3.92;1.20;;;;;;;22.82;46.99;99976.66;5170170;27;20139;-73
2022/08/09 15:46:04;;;;;;;2.75;1.30;;;;;;;22.76;47.51;99979.28;5171862;27;20018;-73
2022/08/09 15:48:30;;;;;;;3.67;1.38;;;;;;;22.75;47.65;99983.81;5163994;27;20019;-73
2022/08/09 15:50:56;;;;;;;2.60;1.42;;;;;;;22.70;47.66;99975.47;5155253;27;20256;-72
2022/08/09 15:53:22;;;;;;;4.82;1.42;;;;;;;22.69;47.80;99989.97;5151109;27;20015;-72
2022/08/09 15:55:49;;;;;;;2.38;1.60;;;;;;;22.66;47.92;99985.78;5155783;27;20042;-72
2022/08/09 15:58:14;;;;;;;2.13;1.40;;;;;;;22.63;48.30;99985.34;5158226;27;20053;-73
2022/08/09 16:00:39;;;;;;;4.50;1.90;;;;;;;22.67;48.39;99992.84;5151589;27;20018;-73
2022/08/09 16:03:05;;;;;;;2.15;1.38;;;;;;;22.68;48.48;99983.72;5150765;27;20247;-73
2022/08/09 16:05:31;;;;;;;2.55;1.48;;;;;;;22.70;48.62;99986.25;5153719;27;20075;-72
2022/08/09 16:07:56;;;;;;;2.95;1.48;;;;;;;22.74;48.26;99992.09;5151119;27;20144;-73
2022/08/09 16:10:22;;;;;;;3.83;1.65;;;;;;;22.72;48.24;99984.19;5153778;27;20030;-73
2022/08/09 16:12:48;;;;;;;2.90;2.17;;;;;;;22.58;48.60;99985.91;5150706;27;20023;-72
2022/08/09 16:15:13;;;;;;;3.70;1.55;;;;;;;22.43;48.86;99988.59;5150564;27;20071;-73
2022/08/09 16:17:40;;;;;;;3.83;1.70;;;;;;;22.36;49.06;99993.06;5150583;27;20019;-71
2022/08/09 16:20:08;;;;;;;6.90;1.85;;;;;;;22.28;49.36;99993.16;5154550;27;20247;-72
2022/08/09 16:22:37;;;;;;;2.65;1.25;;;;;;;22.25;49.66;99995.22;5150480;27;20026;-73
2022/08/09 16:25:04;;;;;;;5.15;1.60;;;;;;;22.24;49.55;99995.38;5154322;27;20039;-73
2022/08/09 16:27:30;;;;;;;2.13;1.58;;;;;;;22.27;49.70;100004.97;5153451;27;20023;-72
2022/08/09 16:29:56;;;;;;;4.82;1.67;;;;;;;22.32;49.47;100005.22;5151269;27;20075;-72
2022/08/09 16:32:22;;;;;;;7.43;1.58;;;;;;;22.31;49.81;100011.66;5152606;27;20023;-72
2022/08/09 16:34:47;;;;;;;3.35;1.60;;;;;;;22.32;49.81;100011.47;5151655;27;20186;-71
2022/08/09 16:37:12;;;;;;;4.80;1.85;;;;;;;22.31;49.96;100007.09;5164769;27;20019;-71
2022/08/09 16:39:38;;;;;;;2.35;1.55;;;;;;;22.31;49.95;100009.81;5170834;27;20027;-72
2022/08/09 16:42:04;;;;;;;4.30;1.35;;;;;;;22.27;50.30;100010.38;5170788;27;20022;-71
2022/08/09 16:44:29;;;;;;;4.32;2.10;;;;;;;22.20;50.39;100011.09;5170854;27;20026;-71
2022/08/09 16:46:54;;;;;;;3.22;1.73;;;;;;;22.15;50.51;100008.09;5170712;27;20140;-72
2022/08/09 16:49:20;;;;;;;2.08;1.52;;;;;;;22.16;50.58;100009.78;5170514;27;20045;-72
2022/08/09 16:51:45;;;;;;;6.65;2.00;;;;;;;22.21;50.55;100015.47;5170641;27;20085;-72
2022/08/09 16:54:11;;;;;;;8.25;2.00;;;;;;;22.24;50.75;100020.50;5163020;27;20111;-71
2022/08/09 16:56:37;;;;;;;3.10;1.70;;;;;;;22.25;50.57;100019.47;5161637;27;20023;-72
2022/08/09 16:59:04;;;;;;;4.22;1.92;;;;;;;22.21;50.74;100022.69;5149665;27;20109;-73
2022/08/09 17:01:30;;;;;;;8.38;1.90;;;;;;;22.14;51.11;100024.47;5161056;27;20018;-71
2022/08/09 17:03:55;;;;;;;7.65;2.03;;;;;;;22.07;51.39;100021.69;5166509;27;20022;-73
2022/08/09 17:06:22;;;;;;;7.70;2.45;;;;;;;22.07;51.50;100025.19;5153388;27;20030;-72
2022/08/09 17:08:48;;;;;;;6.20;2.13;;;;;;;22.14;51.28;100025.28;5153550;27;20062;-72
2022/08/09 17:11:14;;;;;;;2.42;1.73;;;;;;;22.14;51.17;100021.78;5149528;27;20049;-73
2022/08/09 17:13:39;;;;;;;3.70;2.00;;;;;;;22.15;51.15;100028.84;5152200;27;20019;-70
2022/08/09 17:16:05;;;;;;;3.83;2.47;;;;;;;22.17;51.50;100030.31;5154034;27;20018;-72
2022/08/09 17:18:31;;;;;;;6.28;2.25;;;;;;;22.17;51.40;100034.91;5149279;27;20086;-74
2022/08/09 17:20:56;;;;;;;5.50;2.30;;;;;;;22.19;51.24;100033.69;5131397;27;20011;-73
2022/08/09 17:23:22;;;;;;;4.15;2.60;;;;;;;22.08;51.59;100040.34;5153303;27;20023;-71
2022/08/09 17:25:48;;;;;;;2.15;1.63;;;;;;;22.07;51.58;100035.16;5149583;27;20247;-72
2022/08/09 17:28:14;;;;;;;3.15;2.00;;;;;;;22.02;51.58;100035.72;5149408;27;20015;-72
2022/08/09 17:30:40;;;;;;;3.85;2.13;;;;;;;22.01;51.86;100038.56;5169053;27;20045;-72
2022/08/09 17:33:05;;;;;;;3.83;1.80;;;;;;;22.00;51.77;100040.44;5150146;27;20018;-72
2022/08/09 17:35:32;;;;;;;7.20;1.85;;;;;;;21.98;51.86;100039.78;5152808;27;20019;-72
2022/08/09 17:37:58;;;;;;;5.85;3.20;;;;;;;21.99;52.12;100040.59;5148887;27;20019;-73
2022/08/09 17:40:24;;;;;;;3.25;2.15;;;;;;;22.00;51.99;100042.28;5149088;27;20117;-73
2022/08/09 17:42:50;;;;;;;3.03;2.60;;;;;;;21.93;52.05;100044.88;5148964;27;20037;-72
2022/08/09 17:45:15;;;;;;;6.35;2.00;;;;;;;21.93;52.04;100051.13;5165658;27;20155;-73
2022/08/09 17:47:41;;;;;;;3.25;2.30;;;;;;;21.98;52.03;100047.03;5163807;27;20018;-73
2022/08/09 17:50:08;;;;;;;4.15;3.05;;;;;;;22.00;52.08;100044.97;5169660;27;20028;-72
2022/08/09 17:52:33;;;;;;;5.28;2.67;;;;;;;21.91;52.36;100037.00;5169827;27;20132;-73
2022/08/09 17:54:59;;;;;;;4.82;2.47;;;;;;;21.87;52.53;100042.94;5169584;27;20023;-72
2022/08/09 17:57:25;;;;;;;3.65;2.58;;;;;;;21.85;52.59;100040.41;5167932;27;20022;-72
2022/08/09 17:59:51;;;;;;;5.43;2.28;;;;;;;21.79;52.84;100038.47;5153171;27;20042;-72
2022/08/09 18:02:17;;;;;;;6.57;3.03;;;;;;;21.71;52.79;100031.28;5134839;27;20015;-72
2022/08/09 18:04:43;;;;;;;4.20;2.97;;;;;;;21.76;52.84;100036.94;5148701;27;20015;-72
2022/08/09 18:07:08;;;;;;;5.10;2.80;;;;;;;21.77;53.00;100035.09;5148347;28;20042;-71
2022/08/09 18:09:34;;;;;;;6.28;3.03;;;;;;;21.75;53.09;100038.00;5152639;27;20023;-71